createdAt,value
2022-09-17T00:00:59.195Z,20.20
2022-09-17T00:05:02.281Z,20.20
2022-09-17T00:09:07.527Z,20.10
2022-09-17T00:13:11.609Z,20.10
2022-09-17T00:17:14.750Z,20.00
2022-09-17T00:21:19.496Z,20.00
2022-09-17T00:25:22.999Z,20.00
2022-09-17T00:29:25.956Z,20.00
2022-09-17T00:33:28.834Z,19.90
2022-09-17T00:37:31.957Z,19.90
2022-09-17T00:41:38.967Z,19.90
2022-09-17T00:45:42.276Z,19.90
2022-09-17T00:49:49.450Z,19.70
2022-09-17T00:53:59.061Z,19.50
2022-09-17T00:58:05.870Z,19.50
2022-09-17T01:02:09.276Z,19.50
2022-09-17T01:06:26.323Z,19.50
2022-09-17T01:10:38.359Z,19.50
2022-09-17T01:15:08.768Z,19.50
2022-09-17T01:19:32.908Z,19.50
2022-09-17T01:24:04.803Z,19.40
2022-09-17T01:28:45.404Z,19.30
2022-09-17T01:32:54.382Z,19.30
2022-09-17T01:37:15.237Z,19.30
2022-09-17T01:41:28.841Z,19.30
2022-09-17T01:45:57.310Z,19.30
2022-09-17T01:50:17.401Z,19.40
2022-09-17T01:54:29.071Z,19.30
2022-09-17T01:58:41.564Z,19.20
2022-09-17T02:03:08.756Z,19.20
2022-09-17T02:07:20.613Z,19.20
2022-09-17T02:11:24.025Z,19.10
2022-09-17T02:15:33.744Z,19.10
2022-09-17T02:19:40.310Z,19.00
2022-09-17T02:24:11.787Z,19.00
2022-09-17T02:28:37.369Z,18.90
2022-09-17T02:32:40.629Z,18.90
2022-09-17T02:36:46.486Z,18.90
2022-09-17T02:41:00.362Z,18.90
2022-09-17T02:45:10.780Z,19.00
2022-09-17T02:49:19.985Z,19.00
2022-09-17T02:53:45.208Z,19.00
2022-09-17T02:58:09.757Z,19.10
2022-09-17T03:02:28.255Z,19.20
2022-09-17T03:06:31.225Z,19.20
2022-09-17T03:10:34.226Z,19.00
2022-09-17T03:14:37.369Z,19.00
2022-09-17T03:18:40.725Z,19.10
2022-09-17T03:22:43.841Z,19.10
2022-09-17T03:26:49.581Z,19.10
2022-09-17T03:30:55.876Z,19.00
2022-09-17T03:34:59.054Z,19.00
2022-09-17T03:39:02.479Z,18.90
2022-09-17T03:43:06.500Z,18.90
2022-09-17T03:47:09.465Z,18.80
2022-09-17T03:51:12.747Z,18.70
2022-09-17T03:55:18.941Z,18.60
2022-09-17T03:59:27.337Z,18.70
2022-09-17T04:03:30.754Z,18.80
2022-09-17T04:07:33.741Z,18.80
2022-09-17T04:11:36.576Z,18.80
2022-09-17T04:15:40.036Z,18.80
2022-09-17T04:19:42.968Z,18.70
2022-09-17T04:23:45.798Z,18.80
2022-09-17T04:27:48.867Z,18.80
2022-09-17T04:31:51.744Z,18.60
2022-09-17T04:35:54.573Z,18.70
2022-09-17T04:40:02.150Z,18.70
2022-09-17T04:44:18.597Z,18.60
2022-09-17T04:49:16.031Z,18.50
2022-09-17T04:54:17.235Z,18.50
2022-09-17T04:58:54.593Z,18.50
2022-09-17T05:03:27.074Z,18.50
2022-09-17T05:08:03.421Z,18.50
2022-09-17T05:17:52.135Z,18.50
2022-09-17T05:22:19.522Z,18.50
2022-09-17T05:31:21.805Z,18.40
2022-09-17T05:35:28.132Z,18.50
2022-09-17T05:39:33.559Z,18.60
2022-09-17T05:43:45.172Z,18.60
2022-09-17T05:48:00.171Z,18.60
2022-09-17T05:52:03.955Z,18.70
2022-09-17T05:56:06.977Z,18.80
2022-09-17T06:00:11.984Z,18.90
2022-09-17T06:04:20.517Z,18.90
2022-09-17T06:08:46.959Z,19.00
2022-09-17T06:13:52.527Z,19.00
2022-09-17T06:18:14.661Z,19.10
2022-09-17T06:22:46.369Z,19.20
2022-09-17T06:27:10.725Z,19.20
2022-09-17T06:32:23.909Z,19.30
2022-09-17T06:36:35.887Z,19.40
2022-09-17T06:40:43.254Z,19.50
2022-09-17T06:45:47.914Z,19.50
2022-09-17T06:51:03.077Z,19.60
2022-09-17T07:00:54.378Z,19.70
2022-09-17T07:05:01.246Z,19.80
2022-09-17T07:09:12.236Z,19.90
2022-09-17T07:13:15.650Z,20.00
2022-09-17T07:17:21.415Z,20.10
2022-09-17T07:21:28.319Z,20.20
2022-09-17T07:25:49.431Z,20.20
2022-09-17T07:30:07.934Z,20.30
2022-09-17T07:34:12.850Z,20.40
2022-09-17T07:38:45.054Z,20.50
2022-09-17T07:52:19.649Z,20.80
2022-09-17T07:57:23.225Z,20.90
2022-09-17T08:07:13.856Z,21.10
2022-09-17T08:11:54.327Z,21.50
2022-09-17T08:15:59.228Z,21.80
2022-09-17T08:50:49.080Z,23.50
2022-09-17T09:00:46.110Z,24.30
2022-09-17T09:05:13.523Z,24.70
2022-09-17T09:09:21.244Z,24.80
2022-09-17T09:14:18.290Z,24.80
2022-09-17T09:18:30.839Z,24.90
2022-09-17T09:22:52.941Z,24.80
2022-09-17T09:27:04.084Z,24.80
2022-09-17T09:31:28.628Z,24.50
2022-09-17T09:35:34.612Z,24.20
2022-09-17T09:39:46.052Z,23.00
2022-09-17T09:44:23.063Z,21.90
2022-09-17T09:49:15.293Z,20.70
2022-09-17T09:54:08.162Z,19.90
2022-09-17T10:04:27.763Z,18.10
2022-09-17T10:14:07.979Z,16.60
2022-09-17T10:23:29.991Z,15.50
2022-09-17T10:35:02.620Z,14.50
2022-09-17T10:56:45.136Z,13.60
2022-09-17T11:01:20.421Z,13.50
2022-09-17T11:07:07.115Z,13.40
2022-09-17T11:12:28.905Z,13.30
2022-09-17T11:17:26.137Z,13.10
2022-09-17T11:22:24.512Z,12.80
2022-09-17T11:27:12.621Z,12.70
2022-09-17T14:01:57.462Z,16.80
2022-09-17T14:06:05.607Z,16.80
2022-09-17T14:10:15.050Z,16.80
2022-09-17T14:14:46.881Z,16.70
2022-09-17T14:19:16.908Z,17.00
2022-09-17T14:23:20.607Z,17.10
2022-09-17T14:28:00.731Z,17.30
2022-09-17T14:37:29.581Z,17.70
2022-09-17T15:10:49.444Z,18.00
2022-09-17T15:32:20.747Z,18.40
2022-09-17T15:36:38.127Z,18.40
2022-09-17T15:41:58.902Z,18.50
2022-09-17T18:20:35.014Z,14.90
2022-09-17T18:29:24.693Z,14.50
2022-09-17T18:33:30.703Z,14.50
2022-09-17T18:37:43.855Z,14.50
2022-09-17T18:42:42.614Z,14.50
2022-09-17T18:47:19.606Z,14.50
2022-09-17T18:51:33.198Z,14.50
2022-09-17T18:55:54.765Z,14.50
2022-09-17T19:00:15.882Z,14.40
2022-09-17T19:04:42.928Z,14.50
2022-09-17T19:14:01.698Z,14.40
2022-09-17T19:18:18.627Z,14.30
2022-09-17T19:22:42.100Z,14.30
2022-09-17T19:27:16.847Z,14.40
2022-09-17T19:31:31.817Z,14.40
2022-09-17T19:36:00.308Z,14.30
2022-09-17T19:40:27.902Z,14.20
2022-09-17T19:44:40.518Z,14.20
2022-09-17T19:48:56.211Z,14.20
2022-09-17T19:53:07.734Z,14.20
2022-09-17T19:57:14.708Z,14.20
2022-09-17T20:01:24.107Z,14.20
2022-09-17T20:05:27.668Z,14.20
2022-09-17T20:09:31.924Z,14.30
2022-09-17T20:13:37.662Z,14.30
2022-09-17T20:17:44.565Z,14.00
2022-09-17T20:22:07.104Z,13.80
2022-09-17T20:26:23.164Z,13.60
2022-09-17T20:30:26.819Z,13.50
2022-09-17T20:34:34.651Z,13.30
2022-09-17T20:43:04.505Z,12.90
2022-09-17T20:47:20.148Z,12.70
2022-09-17T20:51:40.509Z,12.60
2022-09-17T20:56:05.961Z,12.50
2022-09-17T21:00:21.520Z,12.50
2022-09-17T21:04:27.273Z,12.40
2022-09-17T21:08:43.679Z,12.30
2022-09-17T21:13:16.068Z,12.30
2022-09-17T21:17:36.660Z,12.30
2022-09-17T21:22:17.095Z,12.30
2022-09-17T21:26:49.402Z,12.30
2022-09-17T21:31:11.433Z,12.20
2022-09-17T21:35:42.538Z,12.20
2022-09-17T21:39:45.636Z,12.20
2022-09-17T21:44:01.581Z,12.10
2022-09-17T21:48:18.162Z,12.10
2022-09-17T21:52:21.105Z,12.00
2022-09-17T21:56:34.090Z,12.00
2022-09-17T22:00:43.194Z,11.80
2022-09-17T22:04:53.500Z,11.80
2022-09-17T22:08:59.085Z,11.70
2022-09-17T22:13:05.119Z,11.70
2022-09-17T22:17:07.954Z,11.70
2022-09-17T22:21:21.142Z,11.60
2022-09-17T22:25:24.079Z,11.50
2022-09-17T22:29:28.559Z,11.50
2022-09-17T22:33:36.463Z,11.40
2022-09-17T22:37:39.679Z,11.30
2022-09-17T22:41:45.873Z,11.10
2022-09-17T22:45:49.033Z,11.00
2022-09-17T22:49:54.521Z,10.90
2022-09-17T22:53:59.133Z,10.80
2022-09-17T22:58:01.989Z,10.70
2022-09-17T23:02:04.953Z,10.60
2022-09-17T23:06:10.836Z,10.60
2022-09-17T23:10:13.717Z,10.60
2022-09-17T23:14:17.262Z,10.70
2022-09-17T23:18:20.511Z,10.60
2022-09-17T23:22:23.535Z,10.60
2022-09-17T23:26:36.816Z,10.70
2022-09-17T23:30:39.699Z,10.70
2022-09-17T23:34:42.768Z,10.60
2022-09-17T23:38:47.427Z,10.60
2022-09-17T23:42:50.530Z,10.60
2022-09-17T23:46:53.538Z,10.60
2022-09-17T23:50:56.506Z,10.50
2022-09-17T23:54:59.447Z,10.50
2022-09-17T23:59:02.750Z,10.50
